Time;durP1;ratioP1;P1;durP2;ratioP2;P2;SDS_P1;SDS_P2;PMS_P1;PMS_P2;Temp;Humidity;BMP_temperature;BMP_pressure;BME280_temperature;BME280_humidity;BME280_pressure;Samples;Min_cycle;Max_cycle;Signal;HPM_P1;HPM_P2
2022/03/28 03:02:24;;;;;;;1.30;1.20;;;11.90;51.10;;;;;;5219505;23;20499;-71
2022/03/28 03:04:51;;;;;;;1.30;1.20;;;11.80;51.10;;;;;;4955411;28;20501;-71
2022/03/28 03:07:19;;;;;;;1.20;1.10;;;11.70;51.30;;;;;;4955401;28;20449;-71
2022/03/28 03:09:46;;;;;;;1.80;1.53;;;11.60;51.60;;;;;;4955279;28;20458;-70
2022/03/28 03:12:12;;;;;;;1.57;1.47;;;11.50;52.00;;;;;;4955150;28;20913;-72
2022/03/28 03:14:39;;;;;;;1.50;1.40;;;11.50;51.90;;;;;;5065053;23;20604;-75
2022/03/28 03:17:06;;;;;;;1.30;1.20;;;11.50;51.90;;;;;;4955407;28;20431;-72
2022/03/28 03:19:34;;;;;;;1.30;1.20;;;11.50;52.00;;;;;;4955341;28;20450;-72
2022/03/28 03:22:00;;;;;;;1.40;1.30;;;11.40;52.00;;;;;;4955311;28;20575;-73
2022/03/28 03:24:27;;;;;;;1.60;1.50;;;11.40;52.30;;;;;;4955204;28;20463;-72
2022/03/28 03:26:54;;;;;;;1.57;1.43;;;11.40;52.50;;;;;;4955254;28;20451;-72
2022/03/28 03:29:20;;;;;;;1.40;1.30;;;11.30;52.50;;;;;;4955234;28;20450;-72
2022/03/28 03:31:47;;;;;;;1.60;1.50;;;11.30;52.70;;;;;;4954817;28;20882;-72
2022/03/28 03:34:14;;;;;;;1.50;1.40;;;11.20;52.80;;;;;;4955159;28;20467;-72
2022/03/28 03:36:42;;;;;;;1.30;1.20;;;11.10;52.90;;;;;;4955178;28;20463;-72
2022/03/28 03:39:08;;;;;;;1.60;1.50;;;11.10;53.00;;;;;;4954872;28;20454;-72
2022/03/28 03:41:35;;;;;;;1.60;1.50;;;11.10;53.20;;;;;;4955118;28;20502;-72
2022/03/28 03:44:02;;;;;;;1.43;1.33;;;11.10;53.40;;;;;;4955027;28;20451;-72
2022/03/28 03:46:28;;;;;;;1.20;1.10;;;11.00;53.40;;;;;;4955094;28;20450;-72
2022/03/28 03:48:55;;;;;;;1.47;1.37;;;11.10;53.40;;;;;;4959461;28;20502;-73
2022/03/28 03:51:22;;;;;;;1.63;1.53;;;11.00;53.10;;;;;;4959105;28;20486;-73
2022/03/28 03:53:50;;;;;;;1.53;1.43;;;11.00;53.50;;;;;;4959933;28;20541;-74
2022/03/28 03:56:17;;;;;;;1.60;1.50;;;11.10;53.20;;;;;;4959752;28;20447;-73
2022/03/28 03:58:44;;;;;;;1.60;1.50;;;11.10;52.40;;;;;;4959781;28;20451;-72
2022/03/28 04:01:11;;;;;;;1.63;1.53;;;11.20;52.70;;;;;;4959549;28;20934;-73
2022/03/28 04:03:38;;;;;;;1.50;1.40;;;11.30;52.40;;;;;;4959881;28;20968;-73
2022/03/28 04:06:06;;;;;;;1.50;1.40;;;11.40;52.10;;;;;;4959848;28;20481;-74
2022/03/28 04:08:33;;;;;;;1.60;1.50;;;11.50;52.10;;;;;;4960791;28;20455;-73
2022/03/28 04:11:01;;;;;;;1.40;1.30;;;11.60;52.10;;;;;;4960104;28;20483;-73
2022/03/28 04:13:27;;;;;;;1.80;1.70;;;11.70;51.90;;;;;;4960613;28;20455;-73
2022/03/28 04:15:54;;;;;;;1.80;1.70;;;11.70;52.10;;;;;;4961756;28;20478;-73
2022/03/28 04:18:21;;;;;;;1.50;1.40;;;11.80;51.80;;;;;;4964299;28;20973;-73
2022/03/28 04:20:48;;;;;;;1.40;1.20;;;11.80;52.50;;;;;;4963540;28;20482;-73
2022/03/28 04:23:15;;;;;;;1.20;1.10;;;11.80;52.10;;;;;;4962843;28;20455;-73
2022/03/28 04:25:41;;;;;;;1.40;1.30;;;11.80;51.90;;;;;;4964248;28;20482;-73
2022/03/28 04:28:10;;;;;;;1.30;1.20;;;11.60;52.10;;;;;;4964368;28;20461;-75
2022/03/28 04:30:37;;;;;;;1.17;1.07;;;11.40;52.50;;;;;;4963819;28;20938;-73
2022/03/28 04:33:06;;;;;;;1.40;1.30;;;11.30;52.80;;;;;;4963768;28;20466;-72
2022/03/28 04:35:33;;;;;;;1.40;1.30;;;11.10;53.00;;;;;;4963621;28;20470;-73
2022/03/28 04:38:00;;;;;;;1.43;1.33;;;11.00;53.30;;;;;;4960400;28;20455;-73
2022/03/28 04:40:27;;;;;;;1.33;1.23;;;10.90;53.50;;;;;;4957673;28;20965;-73
2022/03/28 04:42:54;;;;;;;1.53;1.43;;;10.70;54.10;;;;;;4957978;28;20450;-73
2022/03/28 04:45:22;;;;;;;1.30;1.20;;;10.50;54.40;;;;;;4957802;28;20467;-73
2022/03/28 04:47:48;;;;;;;1.30;1.20;;;10.40;54.60;;;;;;4957810;28;20459;-73
2022/03/28 04:50:15;;;;;;;1.70;1.60;;;10.30;54.80;;;;;;4957838;28;20851;-73
2022/03/28 04:52:41;;;;;;;1.40;1.10;;;10.20;55.20;;;;;;4957419;28;21064;-73
2022/03/28 04:55:09;;;;;;;1.50;1.40;;;10.20;55.40;;;;;;4957378;28;21049;-73
2022/03/28 04:57:36;;;;;;;1.73;1.63;;;10.10;55.70;;;;;;4957682;28;20513;-73
2022/03/28 05:00:06;;;;;;;1.40;1.30;;;10.00;55.90;;;;;;4957322;28;20946;-73
2022/03/28 05:02:34;;;;;;;1.63;1.53;;;10.00;55.90;;;;;;4957858;28;20457;-73
2022/03/28 05:05:02;;;;;;;1.87;1.40;;;10.00;56.00;;;;;;4957197;28;21048;-73
2022/03/28 05:07:30;;;;;;;1.50;1.40;;;9.90;56.20;;;;;;4957479;28;20497;-73
2022/03/28 05:09:57;;;;;;;1.67;1.57;;;9.80;56.50;;;;;;4958182;28;20451;-72
2022/03/28 05:12:24;;;;;;;1.63;1.53;;;9.70;56.60;;;;;;4963779;28;20487;-75
2022/03/28 05:14:51;;;;;;;1.40;1.30;;;9.70;56.60;;;;;;4962668;28;20487;-72
2022/03/28 05:17:21;;;;;;;1.87;1.77;;;9.70;56.90;;;;;;4963036;28;20447;-73
2022/03/28 05:19:49;;;;;;;1.67;1.57;;;9.70;57.00;;;;;;4963893;28;20458;-73
2022/03/28 05:22:16;;;;;;;1.40;1.30;;;9.70;56.90;;;;;;4963181;28;20451;-73
2022/03/28 05:24:43;;;;;;;1.70;1.60;;;9.70;57.30;;;;;;4962974;28;20474;-73
2022/03/28 05:27:10;;;;;;;1.60;1.50;;;9.70;57.00;;;;;;4963380;28;20467;-73
2022/03/28 05:29:37;;;;;;;1.70;1.60;;;9.80;56.90;;;;;;4963398;28;20455;-73
2022/03/28 05:32:05;;;;;;;1.57;1.47;;;9.80;56.70;;;;;;4964159;28;20486;-73
2022/03/28 05:34:31;;;;;;;1.63;1.53;;;9.80;56.70;;;;;;4963430;28;20532;-73
2022/03/28 05:37:00;;;;;;;1.63;1.53;;;9.80;56.70;;;;;;4963269;28;20439;-73
2022/03/28 05:39:27;;;;;;;1.80;1.70;;;9.90;56.70;;;;;;4962226;28;20458;-73
2022/03/28 05:41:54;;;;;;;1.77;1.67;;;10.00;56.60;;;;;;4957758;28;20447;-73
2022/03/28 05:44:21;;;;;;;1.60;1.50;;;10.30;56.50;;;;;;4956570;28;20978;-73
2022/03/28 05:46:49;;;;;;;1.60;1.50;;;10.70;55.80;;;;;;4957420;28;20562;-72
2022/03/28 05:49:16;;;;;;;1.60;1.50;;;11.00;54.90;;;;;;4958842;28;20814;-72
2022/03/28 05:51:43;;;;;;;1.60;1.50;;;11.40;54.10;;;;;;4957250;28;20510;-72
2022/03/28 05:54:12;;;;;;;1.80;1.70;;;11.80;53.40;;;;;;4960130;28;20478;-73
2022/03/28 05:56:39;;;;;;;1.40;1.30;;;12.50;52.40;;;;;;4959439;28;20535;-73
2022/03/28 05:59:07;;;;;;;1.70;1.60;;;13.10;49.90;;;;;;4959712;28;20821;-72
2022/03/28 06:01:34;;;;;;;1.80;1.70;;;13.90;48.60;;;;;;4959046;28;20526;-73
2022/03/28 06:04:01;;;;;;;1.43;1.33;;;14.60;47.20;;;;;;4956169;28;20482;-73
2022/03/28 06:06:28;;;;;;;1.50;1.40;;;15.10;45.30;;;;;;4956771;28;20498;-73
2022/03/28 06:08:54;;;;;;;1.53;1.43;;;15.60;44.20;;;;;;4956439;28;20455;-73
2022/03/28 06:11:23;;;;;;;1.63;1.53;;;16.10;43.40;;;;;;4956047;28;20782;-73
2022/03/28 06:13:49;;;;;;;1.80;1.70;;;16.50;42.30;;;;;;4956776;28;20546;-73
2022/03/28 06:16:16;;;;;;;1.50;1.40;;;17.00;41.40;;;;;;4955734;28;20537;-73
2022/03/28 06:18:43;;;;;;;1.53;1.43;;;17.30;40.70;;;;;;4956222;28;20450;-73
2022/03/28 06:21:10;;;;;;;1.67;1.57;;;17.50;39.30;;;;;;4956038;28;20506;-73
2022/03/28 06:23:36;;;;;;;1.73;1.63;;;17.70;39.50;;;;;;4956949;28;20451;-74
2022/03/28 06:26:05;;;;;;;1.50;1.40;;;18.30;38.50;;;;;;4957263;28;20473;-73
2022/03/28 06:28:33;;;;;;;1.73;1.63;;;18.50;39.00;;;;;;4957713;28;20455;-73
2022/03/28 06:31:01;;;;;;;1.60;1.50;;;19.60;38.20;;;;;;4959453;28;20487;-74
2022/03/28 06:33:28;;;;;;;1.53;1.43;;;20.60;36.00;;;;;;4959715;28;20577;-74
2022/03/28 06:35:56;;;;;;;1.60;1.50;;;21.40;35.20;;;;;;4959180;28;20893;-73
2022/03/28 06:38:23;;;;;;;1.40;1.30;;;21.80;34.70;;;;;;4956350;28;20465;-73
2022/03/28 06:40:50;;;;;;;1.70;1.60;;;21.80;34.30;;;;;;4955824;28;20450;-73
2022/03/28 06:43:16;;;;;;;1.40;1.20;;;22.30;35.10;;;;;;4955460;28;20938;-74
2022/03/28 06:45:45;;;;;;;1.60;1.50;;;23.30;34.10;;;;;;4955670;28;20471;-74
2022/03/28 06:48:12;;;;;;;1.50;1.40;;;24.10;31.60;;;;;;4955448;28;20902;-74
2022/03/28 06:50:39;;;;;;;1.70;1.60;;;24.40;32.80;;;;;;4955346;28;20828;-73
2022/03/28 06:53:06;;;;;;;1.57;1.47;;;25.00;32.40;;;;;;4955647;28;20490;-74
2022/03/28 06:55:33;;;;;;;1.57;1.47;;;25.50;32.10;;;;;;4955565;28;20530;-74
2022/03/28 06:57:59;;;;;;;1.97;1.87;;;26.10;31.30;;;;;;4956203;28;20502;-73
2022/03/28 07:00:26;;;;;;;1.40;1.30;;;26.60;30.50;;;;;;4955578;28;20510;-73
2022/03/28 07:02:54;;;;;;;1.47;1.33;;;27.10;30.00;;;;;;4955486;28;20447;-73
2022/03/28 07:05:21;;;;;;;1.50;1.40;;;27.40;29.50;;;;;;4955578;28;20475;-73
2022/03/28 07:07:49;;;;;;;1.40;1.30;;;27.80;28.70;;;;;;4955528;28;20458;-74
2022/03/28 07:10:18;;;;;;;1.40;1.30;;;28.50;28.80;;;;;;4955064;28;20892;-74
2022/03/28 07:12:45;;;;;;;1.87;1.77;;;28.90;28.10;;;;;;4955315;28;20514;-74
2022/03/28 07:15:13;;;;;;;1.60;1.50;;;29.00;28.00;;;;;;4955106;28;20479;-73
2022/03/28 07:17:48;;;;;;;1.60;1.50;;;28.40;28.70;;;;;;4955336;28;20446;-73
2022/03/28 07:20:17;;;;;;;1.63;1.53;;;26.20;30.80;;;;;;4955356;28;20442;-73
2022/03/28 07:22:43;;;;;;;2.40;2.20;;;24.30;32.60;;;;;;4955269;28;20542;-73
2022/03/28 07:25:10;;;;;;;1.43;1.33;;;22.10;35.70;;;;;;4955163;28;20479;-73
2022/03/28 07:27:38;;;;;;;1.53;1.43;;;21.10;37.70;;;;;;4954966;28;20946;-72
2022/03/28 07:30:07;;;;;;;1.60;1.50;;;20.40;38.60;;;;;;4955307;28;20451;-73
2022/03/28 07:32:33;;;;;;;1.87;1.77;;;19.70;39.30;;;;;;4955128;28;20831;-73
2022/03/28 07:35:00;;;;;;;1.60;1.50;;;18.20;41.30;;;;;;4955251;28;20467;-73
2022/03/28 07:37:28;;;;;;;1.50;1.40;;;17.90;42.00;;;;;;4955156;28;20596;-73
2022/03/28 07:39:56;;;;;;;1.13;1.03;;;17.10;43.90;;;;;;4955129;28;20451;-74
2022/03/28 07:42:23;;;;;;;1.70;1.60;;;16.90;44.20;;;;;;4955114;28;20884;-73
2022/03/28 07:44:51;;;;;;;1.90;1.80;;;16.70;44.60;;;;;;4955002;28;20467;-73
2022/03/28 07:47:18;;;;;;;1.60;1.50;;;16.60;45.70;;;;;;4954751;28;20908;-73
2022/03/28 07:49:45;;;;;;;1.50;1.40;;;16.60;45.30;;;;;;4955419;28;20809;-73
2022/03/28 07:52:12;;;;;;;1.57;1.47;;;16.60;45.80;;;;;;4959214;28;20841;-73
2022/03/28 07:54:40;;;;;;;1.47;1.37;;;16.60;46.50;;;;;;4958697;28;20526;-72
2022/03/28 07:57:07;;;;;;;1.47;1.37;;;16.50;45.70;;;;;;4958646;28;20450;-72
2022/03/28 07:59:33;;;;;;;2.00;1.80;;;16.40;45.90;;;;;;4958295;28;20490;-73
2022/03/28 08:02:01;;;;;;;1.93;1.83;;;16.50;48.80;;;;;;4958552;28;20459;-72
2022/03/28 08:04:27;;;;;;;1.70;1.53;;;16.60;48.50;;;;;;4958461;28;20478;-72
2022/03/28 08:06:54;;;;;;;2.40;2.20;;;16.90;48.90;;;;;;4958536;28;20514;-72
2022/03/28 08:09:21;;;;;;;1.90;1.80;;;17.00;48.40;;;;;;4958506;28;20451;-72
2022/03/28 08:11:49;;;;;;;1.93;1.63;;;17.40;47.50;;;;;;4958331;28;20822;-73
2022/03/28 08:14:15;;;;;;;2.03;1.80;;;17.40;47.70;;;;;;4958243;28;20526;-73
2022/03/28 08:16:42;;;;;;;2.00;1.90;;;17.70;48.20;;;;;;4958308;28;20435;-73
2022/03/28 08:19:09;;;;;;;1.50;1.40;;;17.80;45.60;;;;;;4958311;28;20450;-73
2022/03/28 08:21:36;;;;;;;1.57;1.47;;;17.90;44.60;;;;;;4958301;28;20454;-73
2022/03/28 08:24:03;;;;;;;1.77;1.37;;;18.00;43.30;;;;;;4958220;28;20447;-73
2022/03/28 08:26:30;;;;;;;1.70;1.60;;;18.10;42.10;;;;;;4958214;28;20458;-73
2022/03/28 08:28:58;;;;;;;1.63;1.53;;;18.10;42.90;;;;;;4958083;28;20553;-73
2022/03/28 08:31:25;;;;;;;1.60;1.50;;;18.20;43.00;;;;;;4958074;28;20477;-73
2022/03/28 08:33:51;;;;;;;1.87;1.77;;;18.40;41.50;;;;;;4957876;28;20490;-74
2022/03/28 08:36:18;;;;;;;1.80;1.70;;;18.40;40.80;;;;;;4957807;28;20930;-74
2022/03/28 08:38:45;;;;;;;1.73;1.63;;;18.40;39.80;;;;;;4957714;28;20965;-73
2022/03/28 08:41:14;;;;;;;1.80;1.70;;;18.50;40.00;;;;;;4958566;28;20779;-73
2022/03/28 08:43:42;;;;;;;1.50;1.40;;;18.50;43.20;;;;;;4958255;28;20451;-73
2022/03/28 08:46:11;;;;;;;2.00;1.80;;;18.60;45.30;;;;;;4957825;28;20474;-73
2022/03/28 08:48:40;;;;;;;2.00;1.70;;;18.40;41.10;;;;;;4957909;28;20873;-73
2022/03/28 08:51:08;;;;;;;1.80;1.70;;;18.30;46.30;;;;;;4957895;28;20454;-73
2022/03/28 08:53:35;;;;;;;2.37;2.27;;;18.50;46.40;;;;;;4957721;28;20508;-73
2022/03/28 08:56:01;;;;;;;1.90;1.80;;;18.60;45.40;;;;;;4957934;28;20470;-73
2022/03/28 08:58:28;;;;;;;1.63;1.53;;;18.60;45.50;;;;;;4958476;28;20454;-73
2022/03/28 09:00:55;;;;;;;2.33;1.93;;;18.80;46.40;;;;;;4957173;28;20465;-73
2022/03/28 09:03:35;;;;;;;1.70;1.60;;;18.80;46.30;;;;;;4957668;28;20451;-73
2022/03/28 09:06:15;;;;;;;1.90;1.80;;;18.80;46.60;;;;;;4957643;28;20561;-74
2022/03/28 09:08:42;;;;;;;2.17;1.97;;;19.10;45.90;;;;;;4957608;28;20442;-73
2022/03/28 09:11:20;;;;;;;1.60;1.50;;;19.10;45.90;;;;;;4957571;28;20447;-73
2022/03/28 09:13:47;;;;;;;1.60;1.50;;;19.00;44.60;;;;;;4957264;28;20896;-73
2022/03/28 09:16:18;;;;;;;2.60;2.10;;;19.00;46.50;;;;;;5052967;23;20502;-74
2022/03/28 09:18:46;;;;;;;1.80;1.70;;;19.00;46.70;;;;;;4957024;28;20505;-74
2022/03/28 09:21:16;;;;;;;2.03;1.93;;;19.00;47.40;;;;;;4957448;28;20464;-75
2022/03/28 09:23:44;;;;;;;1.70;1.60;;;18.70;46.50;;;;;;4957035;28;20443;-74
2022/03/28 09:26:16;;;;;;;2.10;2.00;;;18.40;47.00;;;;;;4956741;28;20477;-74
2022/03/28 09:28:53;;;;;;;2.07;1.97;;;18.30;47.30;;;;;;4956657;28;20534;-73
2022/03/28 09:31:24;;;;;;;2.33;2.23;;;18.30;47.60;;;;;;4956831;28;20434;-74
2022/03/28 09:34:11;;;;;;;2.00;1.90;;;18.40;47.00;;;;;;4956510;28;20494;-73
2022/03/28 09:36:44;;;;;;;2.20;2.10;;;18.40;47.60;;;;;;4956728;28;20497;-74
2022/03/28 09:39:13;;;;;;;1.70;1.60;;;18.50;47.10;;;;;;4956650;28;20494;-74
2022/03/28 09:41:40;;;;;;;2.30;1.70;;;18.70;47.50;;;;;;4956622;28;20462;-74
2022/03/28 09:44:08;;;;;;;1.90;1.80;;;18.70;46.20;;;;;;4956522;28;20538;-75
2022/03/28 09:46:37;;;;;;;1.73;1.63;;;18.80;48.10;;;;;;4956257;28;20555;-74
2022/03/28 09:49:04;;;;;;;1.77;1.67;;;18.90;48.10;;;;;;4956036;28;20821;-75
2022/03/28 09:51:34;;;;;;;1.83;1.70;;;18.90;46.80;;;;;;4956329;28;20864;-74
2022/03/28 09:54:01;;;;;;;1.70;1.60;;;18.90;47.20;;;;;;4956406;28;20482;-74
2022/03/28 09:56:28;;;;;;;1.87;1.77;;;18.80;46.10;;;;;;4956335;28;20510;-74
2022/03/28 09:59:00;;;;;;;2.00;1.90;;;18.90;46.70;;;;;;4957402;28;20485;-74
2022/03/28 10:01:30;;;;;;;2.30;2.10;;;19.20;46.90;;;;;;4956663;28;20446;-73
2022/03/28 10:04:00;;;;;;;1.97;1.87;;;19.50;47.10;;;;;;4956054;28;20503;-75
2022/03/28 10:06:27;;;;;;;1.87;1.73;;;19.80;46.80;;;;;;4956081;28;20467;-74
2022/03/28 10:08:56;;;;;;;2.07;1.97;;;19.80;45.80;;;;;;4956180;28;20447;-75
2022/03/28 10:11:24;;;;;;;2.10;1.90;;;19.80;46.00;;;;;;4956267;28;20865;-74
2022/03/28 10:13:51;;;;;;;2.53;2.00;;;19.80;44.50;;;;;;4955305;28;20491;-74
2022/03/28 10:16:18;;;;;;;2.03;1.93;;;19.90;45.80;;;;;;4955594;28;20478;-75
2022/03/28 10:18:47;;;;;;;1.87;1.73;;;20.00;45.30;;;;;;4956505;28;20455;-74
2022/03/28 10:21:16;;;;;;;2.00;1.90;;;20.10;43.70;;;;;;4955814;28;20447;-74
2022/03/28 10:23:49;;;;;;;2.10;2.00;;;20.20;43.30;;;;;;4955817;28;20809;-74
2022/03/28 10:26:20;;;;;;;1.80;1.70;;;20.40;42.90;;;;;;4956022;28;20474;-75
2022/03/28 10:29:07;;;;;;;1.93;1.83;;;20.40;42.20;;;;;;4955966;28;20436;-75
2022/03/28 10:31:34;;;;;;;1.70;1.60;;;20.50;42.10;;;;;;4956448;28;20435;-74
2022/03/28 10:34:03;;;;;;;2.03;1.57;;;20.60;37.00;;;;;;4956363;28;20569;-75
2022/03/28 10:36:32;;;;;;;1.57;1.47;;;20.90;37.10;;;;;;4956597;28;20475;-74
2022/03/28 10:39:30;;;;;;;1.60;1.50;;;21.20;34.50;;;;;;4955625;28;20555;-74
2022/03/28 10:42:07;;;;;;;1.50;1.40;;;21.40;33.50;;;;;;4955562;28;20451;-75
2022/03/28 10:44:44;;;;;;;1.60;1.50;;;21.50;33.20;;;;;;4955439;28;20522;-74
2022/03/28 10:47:12;;;;;;;1.93;1.83;;;21.70;34.60;;;;;;4955500;28;20446;-75
2022/03/28 10:49:42;;;;;;;1.57;1.47;;;21.80;35.60;;;;;;4955204;28;20865;-75
2022/03/28 10:52:12;;;;;;;1.50;1.40;;;21.80;31.10;;;;;;4955763;28;20459;-74
2022/03/28 10:54:39;;;;;;;1.53;1.40;;;21.50;30.20;;;;;;4955235;28;20498;-75
2022/03/28 10:57:26;;;;;;;1.67;1.30;;;21.30;29.50;;;;;;4955329;28;20450;-75
2022/03/28 11:00:02;;;;;;;1.40;1.30;;;21.00;32.70;;;;;;4955136;28;20541;-75
2022/03/28 11:02:29;;;;;;;1.70;1.60;;;21.10;31.20;;;;;;4955372;28;20458;-74
2022/03/28 11:05:07;;;;;;;1.60;1.50;;;21.30;31.90;;;;;;4955253;28;20467;-74
2022/03/28 11:07:34;;;;;;;1.50;1.40;;;21.30;31.80;;;;;;4955270;28;20473;-74
2022/03/28 11:10:03;;;;;;;1.30;1.20;;;21.20;32.20;;;;;;4955301;28;20459;-74
2022/03/28 11:12:32;;;;;;;1.77;1.47;;;21.50;32.20;;;;;;4955076;28;20514;-74
2022/03/28 11:15:01;;;;;;;1.60;1.50;;;21.70;31.50;;;;;;4955198;28;20545;-74
2022/03/28 11:17:30;;;;;;;1.43;1.30;;;21.90;31.00;;;;;;4955115;28;20454;-74
2022/03/28 11:20:00;;;;;;;1.60;1.50;;;22.00;32.10;;;;;;4955277;28;20529;-75
2022/03/28 11:22:47;;;;;;;1.70;1.60;;;22.30;32.10;;;;;;4955711;28;20515;-74
2022/03/28 11:25:41;;;;;;;1.83;1.73;;;22.50;30.10;;;;;;4959566;28;21062;-75
2022/03/28 11:28:15;;;;;;;1.50;1.40;;;22.60;30.20;;;;;;4961443;28;20803;-74
2022/03/28 11:31:00;;;;;;;1.63;1.53;;;22.70;31.10;;;;;;4961377;28;20518;-75
2022/03/28 11:33:33;;;;;;;1.60;1.50;;;22.90;30.90;;;;;;4961498;28;20827;-73
2022/03/28 11:36:02;;;;;;;1.70;1.60;;;23.00;31.10;;;;;;4961002;28;21040;-74
2022/03/28 11:38:31;;;;;;;1.37;1.27;;;23.10;32.00;;;;;;4961634;28;20545;-73
2022/03/28 11:40:58;;;;;;;1.57;1.47;;;23.10;30.20;;;;;;4960901;28;20874;-75
2022/03/28 11:43:38;;;;;;;1.53;1.43;;;22.90;30.50;;;;;;4961451;28;20462;-74
2022/03/28 11:46:12;;;;;;;1.60;1.50;;;22.80;31.60;;;;;;4961543;28;20502;-74
2022/03/28 11:48:51;;;;;;;1.53;1.43;;;22.70;32.20;;;;;;4961588;28;20439;-74
2022/03/28 11:51:18;;;;;;;1.70;1.60;;;22.90;32.10;;;;;;4961450;28;20434;-74
2022/03/28 11:53:45;;;;;;;1.67;1.57;;;23.10;31.50;;;;;;4961024;28;20482;-75
2022/03/28 11:56:22;;;;;;;1.50;1.40;;;23.10;32.70;;;;;;4961218;28;20478;-75
2022/03/28 11:58:49;;;;;;;1.90;1.80;;;23.30;32.90;;;;;;4961274;28;20430;-74
2022/03/28 12:01:17;;;;;;;1.63;1.53;;;23.60;32.20;;;;;;4961162;28;20482;-74
2022/03/28 12:03:49;;;;;;;1.97;1.70;;;23.90;32.20;;;;;;4961254;28;20446;-75
2022/03/28 12:06:26;;;;;;;1.53;1.43;;;24.10;31.60;;;;;;4964840;28;20525;-76
2022/03/28 12:08:53;;;;;;;1.40;1.30;;;24.40;31.50;;;;;;4965660;28;20506;-75
2022/03/28 12:11:20;;;;;;;1.50;1.40;;;24.60;30.60;;;;;;4962002;28;20938;-74
2022/03/28 12:13:48;;;;;;;1.70;1.60;;;24.60;30.30;;;;;;4963259;28;20891;-74
2022/03/28 12:16:16;;;;;;;1.53;1.43;;;24.90;31.50;;;;;;4962601;28;20549;-74
2022/03/28 12:18:43;;;;;;;2.20;2.10;;;25.00;29.60;;;;;;4961941;28;20502;-74
2022/03/28 12:21:09;;;;;;;1.77;1.67;;;25.00;30.60;;;;;;4961274;28;20897;-75
2022/03/28 12:23:38;;;;;;;1.90;1.80;;;25.00;32.40;;;;;;4961012;28;20458;-74
2022/03/28 12:26:05;;;;;;;1.90;1.80;;;25.10;32.50;;;;;;4960544;28;20909;-75
2022/03/28 12:28:34;;;;;;;1.93;1.83;;;25.30;32.70;;;;;;4960789;28;20537;-75
2022/03/28 12:31:03;;;;;;;1.90;1.80;;;24.90;32.90;;;;;;4960820;28;20451;-74
2022/03/28 12:33:33;;;;;;;2.00;1.90;;;24.80;33.20;;;;;;4960817;28;20478;-74
2022/03/28 12:36:03;;;;;;;2.27;2.17;;;24.90;34.00;;;;;;4958448;28;20882;-75
2022/03/28 12:38:31;;;;;;;1.90;1.80;;;24.90;33.10;;;;;;4957825;28;20482;-73
2022/03/28 12:41:00;;;;;;;1.90;1.80;;;24.80;33.70;;;;;;4958221;28;20454;-74
2022/03/28 12:43:28;;;;;;;2.10;2.00;;;24.90;34.00;;;;;;4957798;28;20455;-75
2022/03/28 12:45:56;;;;;;;2.07;1.87;;;25.00;34.50;;;;;;4958876;28;20530;-74
2022/03/28 12:48:23;;;;;;;1.93;1.83;;;25.00;34.30;;;;;;4958234;28;20939;-74
2022/03/28 12:50:57;;;;;;;2.13;2.03;;;24.90;33.90;;;;;;4958143;28;20455;-75
2022/03/28 12:53:27;;;;;;;2.30;2.00;;;25.00;34.30;;;;;;4957594;28;20439;-74
2022/03/28 12:55:55;;;;;;;2.03;1.93;;;25.10;34.20;;;;;;4957371;28;20553;-74
2022/03/28 12:58:34;;;;;;;2.07;1.97;;;25.20;34.20;;;;;;4957079;28;20872;-74
2022/03/28 13:01:06;;;;;;;2.30;2.20;;;25.10;34.20;;;;;;4957597;29;20521;-75
2022/03/28 13:03:33;;;;;;;1.90;1.80;;;25.00;34.00;;;;;;4957525;28;20454;-74
2022/03/28 13:06:09;;;;;;;2.20;2.10;;;25.10;34.20;;;;;;4957144;28;20824;-75
2022/03/28 13:08:37;;;;;;;2.10;2.00;;;25.20;34.80;;;;;;4957040;28;20875;-75
2022/03/28 13:11:18;;;;;;;1.90;1.80;;;25.40;34.00;;;;;;4957367;28;20513;-75
2022/03/28 13:13:46;;;;;;;1.73;1.63;;;25.70;35.30;;;;;;4957146;28;20478;-75
2022/03/28 13:16:21;;;;;;;1.97;1.87;;;25.70;34.60;;;;;;4956898;28;20565;-75
2022/03/28 13:19:05;;;;;;;1.77;1.67;;;25.80;34.80;;;;;;4957327;28;20537;-74
2022/03/28 13:21:36;;;;;;;1.90;1.80;;;25.80;34.50;;;;;;4957218;28;20907;-75
2022/03/28 13:24:14;;;;;;;1.60;1.50;;;25.80;34.50;;;;;;4958396;28;20836;-76
2022/03/28 13:26:44;;;;;;;1.67;1.57;;;25.80;34.50;;;;;;4957468;28;20498;-75
2022/03/28 13:29:24;;;;;;;1.90;1.80;;;25.60;34.90;;;;;;4957088;28;20833;-76
2022/03/28 13:31:53;;;;;;;1.70;1.60;;;25.70;34.10;;;;;;4957209;28;20435;-76
2022/03/28 13:34:20;;;;;;;1.70;1.60;;;25.90;34.10;;;;;;4956716;28;20517;-75
2022/03/28 13:36:49;;;;;;;1.57;1.47;;;26.00;33.70;;;;;;4956955;28;20451;-76
2022/03/28 13:39:16;;;;;;;1.60;1.50;;;26.20;33.40;;;;;;4956748;28;20447;-76
2022/03/28 13:41:43;;;;;;;1.90;1.80;;;26.40;33.60;;;;;;4957402;28;20455;-76
2022/03/28 13:44:09;;;;;;;1.50;1.40;;;26.40;32.40;;;;;;4965194;28;20502;-76
2022/03/28 13:46:37;;;;;;;1.70;1.60;;;26.60;32.70;;;;;;4975842;28;20478;-76
2022/03/28 13:49:04;;;;;;;1.40;1.30;;;26.60;32.20;;;;;;4979051;28;20466;-75
2022/03/28 13:51:32;;;;;;;1.70;1.60;;;26.50;31.80;;;;;;4960579;28;20458;-76
2022/03/28 13:54:01;;;;;;;1.33;1.23;;;26.50;32.90;;;;;;4958084;28;20491;-75
2022/03/28 13:56:28;;;;;;;1.37;1.27;;;26.50;32.50;;;;;;4957659;28;20474;-76
2022/03/28 13:58:55;;;;;;;1.20;1.10;;;26.60;32.00;;;;;;4956989;28;20465;-77
2022/03/28 14:01:27;;;;;;;1.80;1.70;;;26.70;30.90;;;;;;4956741;28;20510;-74
2022/03/28 14:03:55;;;;;;;1.30;1.20;;;26.60;30.70;;;;;;4956626;28;20427;-77
2022/03/28 14:06:22;;;;;;;1.30;1.20;;;26.60;31.00;;;;;;4956523;28;20471;-74
2022/03/28 14:08:49;;;;;;;1.70;1.60;;;26.50;30.10;;;;;;4956242;28;20963;-76
2022/03/28 14:11:17;;;;;;;1.40;1.30;;;26.50;30.00;;;;;;4956618;28;20549;-74
2022/03/28 14:13:46;;;;;;;1.53;1.43;;;26.70;31.00;;;;;;4956518;28;20451;-77
2022/03/28 14:16:13;;;;;;;1.30;1.20;;;26.80;30.20;;;;;;4956029;28;20994;-76
2022/03/28 14:18:40;;;;;;;1.50;1.40;;;27.00;30.80;;;;;;4956053;28;20446;-76
2022/03/28 14:21:06;;;;;;;1.30;1.20;;;27.20;29.90;;;;;;4956058;28;20532;-76
2022/03/28 14:23:33;;;;;;;1.47;1.37;;;27.50;29.50;;;;;;4956315;28;20596;-78
2022/03/28 14:26:01;;;;;;;1.50;1.40;;;27.70;29.60;;;;;;4956307;28;20467;-76
2022/03/28 14:28:29;;;;;;;1.20;1.10;;;28.00;29.00;;;;;;4955983;28;20459;-75
2022/03/28 14:30:56;;;;;;;1.33;1.23;;;28.50;28.50;;;;;;4955836;28;20871;-75
2022/03/28 14:33:24;;;;;;;1.33;1.23;;;29.40;27.90;;;;;;4956228;28;20454;-75
2022/03/28 14:35:51;;;;;;;1.40;1.30;;;30.20;26.40;;;;;;4955711;28;20491;-76
2022/03/28 14:38:18;;;;;;;1.47;1.13;;;31.20;25.90;;;;;;4955758;28;20454;-76
2022/03/28 14:40:45;;;;;;;1.20;1.10;;;32.60;25.00;;;;;;4955548;28;20974;-76
2022/03/28 14:43:12;;;;;;;1.30;1.20;;;33.70;23.00;;;;;;4955724;28;20873;-76
2022/03/28 14:48:26;;;;;;;1.20;1.10;;;34.60;22.10;;;;;;4955576;29;20806;-76
2022/03/28 14:50:53;;;;;;;1.30;1.20;;;35.10;22.20;;;;;;4955386;28;20454;-77
2022/03/28 14:53:19;;;;;;;1.13;1.03;;;35.50;21.40;;;;;;4955399;28;20454;-76
2022/03/28 14:55:46;;;;;;;1.17;1.07;;;36.00;21.50;;;;;;4955314;28;20490;-77
2022/03/28 14:58:12;;;;;;;1.00;0.90;;;36.40;21.30;;;;;;4955206;28;20454;-75
2022/03/28 15:00:41;;;;;;;1.00;0.90;;;36.70;21.00;;;;;;4955178;28;20450;-76
2022/03/28 15:03:07;;;;;;;1.37;1.20;;;37.10;20.70;;;;;;4955333;28;20884;-76
2022/03/28 15:05:35;;;;;;;1.20;1.10;;;37.20;20.00;;;;;;4954713;28;20977;-76
2022/03/28 15:08:01;;;;;;;1.20;1.10;;;36.80;20.40;;;;;;4955265;28;20574;-77
2022/03/28 15:10:30;;;;;;;1.20;1.10;;;36.60;20.20;;;;;;4955460;28;20497;-76
2022/03/28 15:12:57;;;;;;;1.37;1.20;;;36.40;20.30;;;;;;4955646;28;20450;-77
2022/03/28 15:15:23;;;;;;;1.40;1.10;;;36.00;20.30;;;;;;4956189;28;20502;-76
2022/03/28 15:17:52;;;;;;;1.40;1.30;;;35.70;20.90;;;;;;4955157;28;20874;-76
2022/03/28 15:20:19;;;;;;;1.00;0.90;;;35.10;21.40;;;;;;4954963;28;20877;-76
2022/03/28 15:22:46;;;;;;;1.30;1.20;;;34.70;21.80;;;;;;4954759;28;20470;-76
2022/03/28 15:25:13;;;;;;;1.30;1.20;;;33.90;22.00;;;;;;4955514;28;20514;-76
2022/03/28 15:27:39;;;;;;;1.20;1.10;;;32.90;23.00;;;;;;4955548;28;20454;-76
2022/03/28 15:30:07;;;;;;;1.30;1.20;;;32.00;23.40;;;;;;4955567;28;20502;-73
2022/03/28 15:32:34;;;;;;;1.60;1.50;;;30.70;24.00;;;;;;4955406;28;20451;-74
2022/03/28 15:35:02;;;;;;;1.20;1.10;;;29.60;24.70;;;;;;4955574;28;20541;-75
2022/03/28 15:37:29;;;;;;;1.30;1.20;;;28.70;25.90;;;;;;4955634;28;20505;-75
2022/03/28 15:39:57;;;;;;;1.30;1.20;;;28.00;26.00;;;;;;4954937;28;20538;-76
2022/03/28 15:42:24;;;;;;;1.40;1.30;;;27.60;26.90;;;;;;4955537;29;20455;-75
2022/03/28 15:44:50;;;;;;;1.43;1.33;;;27.20;27.10;;;;;;4955066;28;20470;-76
2022/03/28 15:47:18;;;;;;;1.10;1.00;;;26.80;27.80;;;;;;4955163;28;20451;-75
2022/03/28 15:49:45;;;;;;;1.20;1.10;;;26.40;28.40;;;;;;4954944;28;20465;-75
2022/03/28 15:52:13;;;;;;;1.50;1.40;;;26.00;27.80;;;;;;4955198;28;20492;-76
2022/03/28 15:54:41;;;;;;;1.23;1.13;;;25.60;28.40;;;;;;4955009;28;20508;-76
2022/03/28 15:57:08;;;;;;;1.20;1.10;;;25.10;28.90;;;;;;4954984;28;20501;-72
2022/03/28 15:59:34;;;;;;;1.20;1.10;;;25.00;29.50;;;;;;4955014;28;20482;-75